sensor_id;sensor_type;location;lat;lon;timestamp;temperature;humidity
2465;DHT22;1244;54.326;10.074;2024-02-23T00:01:55;9.80;99.90
2465;DHT22;1244;54.326;10.074;2024-02-23T00:04:20;9.70;99.90
2465;DHT22;1244;54.326;10.074;2024-02-23T00:06:46;9.70;99.90
2465;DHT22;1244;54.326;10.074;2024-02-23T00:09:11;9.60;99.90
2465;DHT22;1244;54.326;10.074;2024-02-23T00:11:43;9.50;99.90
2465;DHT22;1244;54.326;10.074;2024-02-23T00:14:12;9.50;99.90
2465;DHT22;1244;54.326;10.074;2024-02-23T00:16:39;9.40;99.90
2465;DHT22;1244;54.326;10.074;2024-02-23T00:19:06;9.40;99.90
2465;DHT22;1244;54.326;10.074;2024-02-23T00:21:32;9.10;99.90
2465;DHT22;1244;54.326;10.074;2024-02-23T00:23:57;9.10;99.90
2465;DHT22;1244;54.326;10.074;2024-02-23T00:26:23;9.00;99.90
2465;DHT22;1244;54.326;10.074;2024-02-23T00:28:49;9.00;99.90
2465;DHT22;1244;54.326;10.074;2024-02-23T00:31:14;8.90;99.90
2465;DHT22;1244;54.326;10.074;2024-02-23T00:33:40;9.00;99.90
2465;DHT22;1244;54.326;10.074;2024-02-23T00:36:07;8.90;99.90
2465;DHT22;1244;54.326;10.074;2024-02-23T00:38:33;8.90;99.90
2465;DHT22;1244;54.326;10.074;2024-02-23T00:40:58;8.90;99.90
2465;DHT22;1244;54.326;10.074;2024-02-23T00:43:24;9.00;99.90
2465;DHT22;1244;54.326;10.074;2024-02-23T00:45:49;9.00;99.90
2465;DHT22;1244;54.326;10.074;2024-02-23T00:48:15;9.00;99.90
2465;DHT22;1244;54.326;10.074;2024-02-23T00:50:40;8.60;99.90
2465;DHT22;1244;54.326;10.074;2024-02-23T00:53:06;8.20;99.90
2465;DHT22;1244;54.326;10.074;2024-02-23T00:55:31;7.80;99.90
2465;DHT22;1244;54.326;10.074;2024-02-23T00:57:57;7.40;99.90
2465;DHT22;1244;54.326;10.074;2024-02-23T01:00:22;6.90;99.90
2465;DHT22;1244;54.326;10.074;2024-02-23T01:02:48;6.50;99.90
2465;DHT22;1244;54.326;10.074;2024-02-23T01:05:14;6.50;99.90
2465;DHT22;1244;54.326;10.074;2024-02-23T01:07:39;6.40;99.90
2465;DHT22;1244;54.326;10.074;2024-02-23T01:10:05;6.60;99.90
2465;DHT22;1244;54.326;10.074;2024-02-23T01:12:31;6.30;99.90
2465;DHT22;1244;54.326;10.074;2024-02-23T01:14:56;6.50;99.90
2465;DHT22;1244;54.326;10.074;2024-02-23T01:17:22;6.50;99.90
2465;DHT22;1244;54.326;10.074;2024-02-23T01:19:47;6.40;99.90
2465;DHT22;1244;54.326;10.074;2024-02-23T01:22:13;6.50;99.90
2465;DHT22;1244;54.326;10.074;2024-02-23T01:24:40;6.50;99.90
2465;DHT22;1244;54.326;10.074;2024-02-23T01:27:05;6.50;99.90
2465;DHT22;1244;54.326;10.074;2024-02-23T01:29:31;6.40;99.90
2465;DHT22;1244;54.326;10.074;2024-02-23T01:31:56;6.50;99.90
2465;DHT22;1244;54.326;10.074;2024-02-23T01:34:22;6.50;99.90
2465;DHT22;1244;54.326;10.074;2024-02-23T01:36:47;6.40;99.90
2465;DHT22;1244;54.326;10.074;2024-02-23T01:39:13;6.30;99.90
2465;DHT22;1244;54.326;10.074;2024-02-23T01:41:39;6.30;99.90
2465;DHT22;1244;54.326;10.074;2024-02-23T01:44:04;6.30;99.90
2465;DHT22;1244;54.326;10.074;2024-02-23T01:46:30;6.30;99.90
2465;DHT22;1244;54.326;10.074;2024-02-23T01:48:56;6.30;99.90
2465;DHT22;1244;54.326;10.074;2024-02-23T01:51:23;6.20;99.90
2465;DHT22;1244;54.326;10.074;2024-02-23T01:53:48;6.30;99.90
2465;DHT22;1244;54.326;10.074;2024-02-23T01:56:15;6.20;99.90
2465;DHT22;1244;54.326;10.074;2024-02-23T01:58:45;6.30;99.90
2465;DHT22;1244;54.326;10.074;2024-02-23T02:01:11;6.20;99.90
2465;DHT22;1244;54.326;10.074;2024-02-23T02:03:38;6.20;99.90
2465;DHT22;1244;54.326;10.074;2024-02-23T02:06:05;6.20;99.90
2465;DHT22;1244;54.326;10.074;2024-02-23T02:08:33;6.10;99.90
2465;DHT22;1244;54.326;10.074;2024-02-23T02:10:59;6.10;99.90
2465;DHT22;1244;54.326;10.074;2024-02-23T02:13:24;6.00;99.90
2465;DHT22;1244;54.326;10.074;2024-02-23T02:15:50;5.90;99.90
2465;DHT22;1244;54.326;10.074;2024-02-23T02:18:15;5.90;99.90
2465;DHT22;1244;54.326;10.074;2024-02-23T02:20:51;5.80;99.90
2465;DHT22;1244;54.326;10.074;2024-02-23T02:23:18;5.80;99.90
2465;DHT22;1244;54.326;10.074;2024-02-23T02:25:43;5.80;99.90
2465;DHT22;1244;54.326;10.074;2024-02-23T02:28:09;5.80;99.90
2465;DHT22;1244;54.326;10.074;2024-02-23T02:30:35;5.80;99.90
2465;DHT22;1244;54.326;10.074;2024-02-23T02:33:00;5.70;99.90
2465;DHT22;1244;54.326;10.074;2024-02-23T02:35:26;5.70;99.90
2465;DHT22;1244;54.326;10.074;2024-02-23T02:37:51;5.70;99.90
2465;DHT22;1244;54.326;10.074;2024-02-23T02:40:17;5.60;99.90
2465;DHT22;1244;54.326;10.074;2024-02-23T02:42:42;5.60;99.90
2465;DHT22;1244;54.326;10.074;2024-02-23T02:45:08;5.50;99.90
2465;DHT22;1244;54.326;10.074;2024-02-23T02:47:33;5.50;99.90
2465;DHT22;1244;54.326;10.074;2024-02-23T02:49:59;5.40;99.90
2465;DHT22;1244;54.326;10.074;2024-02-23T02:52:24;5.50;99.90
2465;DHT22;1244;54.326;10.074;2024-02-23T02:54:50;5.40;99.90
2465;DHT22;1244;54.326;10.074;2024-02-23T02:57:16;5.30;99.90
2465;DHT22;1244;54.326;10.074;2024-02-23T02:59:41;5.40;99.90
2465;DHT22;1244;54.326;10.074;2024-02-23T03:02:07;5.20;99.90
2465;DHT22;1244;54.326;10.074;2024-02-23T03:04:33;5.10;99.90
2465;DHT22;1244;54.326;10.074;2024-02-23T03:06:58;5.40;99.90
2465;DHT22;1244;54.326;10.074;2024-02-23T03:09:24;5.30;99.90
2465;DHT22;1244;54.326;10.074;2024-02-23T03:11:49;5.00;99.90
2465;DHT22;1244;54.326;10.074;2024-02-23T03:14:15;5.10;99.90
2465;DHT22;1244;54.326;10.074;2024-02-23T03:16:43;5.20;99.90
2465;DHT22;1244;54.326;10.074;2024-02-23T03:19:08;5.10;99.90
2465;DHT22;1244;54.326;10.074;2024-02-23T03:21:34;5.00;99.90
2465;DHT22;1244;54.326;10.074;2024-02-23T03:23:59;5.10;99.90
2465;DHT22;1244;54.326;10.074;2024-02-23T03:26:25;5.10;99.90
2465;DHT22;1244;54.326;10.074;2024-02-23T03:28:51;5.20;99.90
2465;DHT22;1244;54.326;10.074;2024-02-23T03:31:16;5.10;99.90
2465;DHT22;1244;54.326;10.074;2024-02-23T03:33:42;5.20;99.90
2465;DHT22;1244;54.326;10.074;2024-02-23T03:36:08;5.10;99.90
2465;DHT22;1244;54.326;10.074;2024-02-23T03:38:33;5.20;99.90
2465;DHT22;1244;54.326;10.074;2024-02-23T03:40:59;5.20;99.90
2465;DHT22;1244;54.326;10.074;2024-02-23T03:43:25;5.20;99.90
2465;DHT22;1244;54.326;10.074;2024-02-23T03:45:51;5.20;99.90
2465;DHT22;1244;54.326;10.074;2024-02-23T03:48:16;5.10;99.90
2465;DHT22;1244;54.326;10.074;2024-02-23T03:50:42;5.10;99.90
2465;DHT22;1244;54.326;10.074;2024-02-23T03:53:07;5.20;99.90
2465;DHT22;1244;54.326;10.074;2024-02-23T03:55:33;5.20;99.90
2465;DHT22;1244;54.326;10.074;2024-02-23T03:57:58;5.20;99.90
2465;DHT22;1244;54.326;10.074;2024-02-23T04:00:24;5.10;99.90
2465;DHT22;1244;54.326;10.074;2024-02-23T04:02:50;5.10;99.90
2465;DHT22;1244;54.326;10.074;2024-02-23T04:05:16;5.20;99.90
2465;DHT22;1244;54.326;10.074;2024-02-23T04:07:41;5.20;99.90
2465;DHT22;1244;54.326;10.074;2024-02-23T04:10:07;5.30;99.90
2465;DHT22;1244;54.326;10.074;2024-02-23T04:12:33;5.30;99.90
2465;DHT22;1244;54.326;10.074;2024-02-23T04:14:58;5.30;99.90
2465;DHT22;1244;54.326;10.074;2024-02-23T04:17:24;5.20;99.90
2465;DHT22;1244;54.326;10.074;2024-02-23T04:19:49;5.20;99.90
2465;DHT22;1244;54.326;10.074;2024-02-23T04:22:15;5.20;99.90
2465;DHT22;1244;54.326;10.074;2024-02-23T04:24:41;5.30;99.90
2465;DHT22;1244;54.326;10.074;2024-02-23T04:27:07;5.30;99.90
2465;DHT22;1244;54.326;10.074;2024-02-23T04:29:33;5.30;99.90
2465;DHT22;1244;54.326;10.074;2024-02-23T04:32:02;5.40;99.90
2465;DHT22;1244;54.326;10.074;2024-02-23T04:34:28;5.40;99.90
2465;DHT22;1244;54.326;10.074;2024-02-23T04:36:54;5.40;99.90
2465;DHT22;1244;54.326;10.074;2024-02-23T04:39:20;5.40;99.90
2465;DHT22;1244;54.326;10.074;2024-02-23T04:41:46;5.30;99.90
2465;DHT22;1244;54.326;10.074;2024-02-23T04:44:11;5.40;99.90
2465;DHT22;1244;54.326;10.074;2024-02-23T04:46:37;5.40;99.90
2465;DHT22;1244;54.326;10.074;2024-02-23T04:49:02;5.40;99.90
2465;DHT22;1244;54.326;10.074;2024-02-23T04:51:28;5.40;99.90
2465;DHT22;1244;54.326;10.074;2024-02-23T04:53:53;5.40;99.90
2465;DHT22;1244;54.326;10.074;2024-02-23T04:56:19;5.50;99.90
2465;DHT22;1244;54.326;10.074;2024-02-23T04:58:46;5.50;99.90
2465;DHT22;1244;54.326;10.074;2024-02-23T05:01:12;5.40;99.90
2465;DHT22;1244;54.326;10.074;2024-02-23T05:03:37;5.50;99.90
2465;DHT22;1244;54.326;10.074;2024-02-23T05:06:03;5.50;99.90
2465;DHT22;1244;54.326;10.074;2024-02-23T05:08:29;5.50;99.90
2465;DHT22;1244;54.326;10.074;2024-02-23T05:10:56;5.60;99.90
2465;DHT22;1244;54.326;10.074;2024-02-23T05:13:21;5.50;99.90
2465;DHT22;1244;54.326;10.074;2024-02-23T05:15:47;5.60;99.90
2465;DHT22;1244;54.326;10.074;2024-02-23T05:18:12;5.50;99.90
2465;DHT22;1244;54.326;10.074;2024-02-23T05:20:38;5.60;99.90
2465;DHT22;1244;54.326;10.074;2024-02-23T05:23:03;5.60;99.90
2465;DHT22;1244;54.326;10.074;2024-02-23T05:25:29;5.60;99.90
2465;DHT22;1244;54.326;10.074;2024-02-23T05:27:54;5.50;99.90
2465;DHT22;1244;54.326;10.074;2024-02-23T05:30:20;5.60;99.90
2465;DHT22;1244;54.326;10.074;2024-02-23T05:32:45;5.50;99.90
2465;DHT22;1244;54.326;10.074;2024-02-23T05:35:12;5.50;99.90
2465;DHT22;1244;54.326;10.074;2024-02-23T05:37:37;5.50;99.90
2465;DHT22;1244;54.326;10.074;2024-02-23T05:40:04;5.50;99.90
2465;DHT22;1244;54.326;10.074;2024-02-23T05:42:35;5.40;99.90
2465;DHT22;1244;54.326;10.074;2024-02-23T05:45:01;5.40;99.90
2465;DHT22;1244;54.326;10.074;2024-02-23T05:47:26;5.50;99.90
2465;DHT22;1244;54.326;10.074;2024-02-23T05:49:53;5.40;99.90
2465;DHT22;1244;54.326;10.074;2024-02-23T05:52:18;5.40;99.90
2465;DHT22;1244;54.326;10.074;2024-02-23T05:54:44;5.30;99.90
2465;DHT22;1244;54.326;10.074;2024-02-23T05:57:09;5.30;99.90
2465;DHT22;1244;54.326;10.074;2024-02-23T05:59:35;5.30;99.90
2465;DHT22;1244;54.326;10.074;2024-02-23T06:02:00;5.30;99.90
2465;DHT22;1244;54.326;10.074;2024-02-23T06:04:26;5.40;99.90
2465;DHT22;1244;54.326;10.074;2024-02-23T06:06:52;5.30;99.90
2465;DHT22;1244;54.326;10.074;2024-02-23T06:09:18;5.30;99.90
2465;DHT22;1244;54.326;10.074;2024-02-23T06:11:44;5.30;99.90
2465;DHT22;1244;54.326;10.074;2024-02-23T06:14:10;5.40;99.90
2465;DHT22;1244;54.326;10.074;2024-02-23T06:16:36;5.40;99.90
2465;DHT22;1244;54.326;10.074;2024-02-23T06:19:02;5.40;99.90
2465;DHT22;1244;54.326;10.074;2024-02-23T06:21:29;5.30;99.90
2465;DHT22;1244;54.326;10.074;2024-02-23T06:23:54;5.40;99.90
2465;DHT22;1244;54.326;10.074;2024-02-23T06:26:21;5.40;99.90
2465;DHT22;1244;54.326;10.074;2024-02-23T06:28:46;5.40;99.90
2465;DHT22;1244;54.326;10.074;2024-02-23T06:31:12;5.40;99.90
2465;DHT22;1244;54.326;10.074;2024-02-23T06:33:38;5.50;99.90
2465;DHT22;1244;54.326;10.074;2024-02-23T06:36:04;5.50;99.90
2465;DHT22;1244;54.326;10.074;2024-02-23T06:38:30;5.50;99.90
2465;DHT22;1244;54.326;10.074;2024-02-23T06:40:55;5.50;99.90
2465;DHT22;1244;54.326;10.074;2024-02-23T06:43:21;5.50;99.90
2465;DHT22;1244;54.326;10.074;2024-02-23T06:45:47;5.50;99.90
2465;DHT22;1244;54.326;10.074;2024-02-23T06:48:13;5.50;99.90
2465;DHT22;1244;54.326;10.074;2024-02-23T06:50:38;5.50;99.90
2465;DHT22;1244;54.326;10.074;2024-02-23T06:53:04;5.60;99.90
2465;DHT22;1244;54.326;10.074;2024-02-23T06:55:30;5.60;99.90
2465;DHT22;1244;54.326;10.074;2024-02-23T06:57:56;5.60;99.90
2465;DHT22;1244;54.326;10.074;2024-02-23T07:00:21;5.60;99.90
2465;DHT22;1244;54.326;10.074;2024-02-23T07:02:47;5.60;99.90
2465;DHT22;1244;54.326;10.074;2024-02-23T07:05:13;5.70;99.90
2465;DHT22;1244;54.326;10.074;2024-02-23T07:07:39;5.60;99.90
2465;DHT22;1244;54.326;10.074;2024-02-23T07:10:06;5.70;99.90
2465;DHT22;1244;54.326;10.074;2024-02-23T07:12:32;5.60;99.90
2465;DHT22;1244;54.326;10.074;2024-02-23T07:14:58;5.80;99.90
2465;DHT22;1244;54.326;10.074;2024-02-23T07:17:24;5.70;99.90
2465;DHT22;1244;54.326;10.074;2024-02-23T07:19:49;5.70;99.90
2465;DHT22;1244;54.326;10.074;2024-02-23T07:22:16;5.60;99.90
2465;DHT22;1244;54.326;10.074;2024-02-23T07:24:55;5.60;99.90
2465;DHT22;1244;54.326;10.074;2024-02-23T07:27:25;5.70;99.90
2465;DHT22;1244;54.326;10.074;2024-02-23T07:30:11;5.60;99.90
2465;DHT22;1244;54.326;10.074;2024-02-23T07:32:37;5.60;99.90
2465;DHT22;1244;54.326;10.074;2024-02-23T07:35:03;5.50;99.90
2465;DHT22;1244;54.326;10.074;2024-02-23T07:37:29;5.60;99.90
2465;DHT22;1244;54.326;10.074;2024-02-23T07:39:56;5.60;99.90
2465;DHT22;1244;54.326;10.074;2024-02-23T07:42:21;5.50;99.90
2465;DHT22;1244;54.326;10.074;2024-02-23T07:44:47;5.30;99.90
2465;DHT22;1244;54.326;10.074;2024-02-23T07:47:13;5.10;99.90
2465;DHT22;1244;54.326;10.074;2024-02-23T07:49:38;5.00;99.90
2465;DHT22;1244;54.326;10.074;2024-02-23T07:52:06;5.00;99.90
2465;DHT22;1244;54.326;10.074;2024-02-23T07:54:32;5.10;99.90
2465;DHT22;1244;54.326;10.074;2024-02-23T07:56:58;5.10;99.90
2465;DHT22;1244;54.326;10.074;2024-02-23T07:59:23;5.10;99.90
2465;DHT22;1244;54.326;10.074;2024-02-23T08:01:49;5.30;99.90
2465;DHT22;1244;54.326;10.074;2024-02-23T08:04:14;5.30;99.90
2465;DHT22;1244;54.326;10.074;2024-02-23T08:06:39;5.30;99.90
2465;DHT22;1244;54.326;10.074;2024-02-23T08:09:05;5.50;99.90
2465;DHT22;1244;54.326;10.074;2024-02-23T08:11:32;5.60;99.90
2465;DHT22;1244;54.326;10.074;2024-02-23T08:13:58;5.60;99.90
2465;DHT22;1244;54.326;10.074;2024-02-23T08:16:23;5.60;99.90
2465;DHT22;1244;54.326;10.074;2024-02-23T08:18:49;5.60;99.90
2465;DHT22;1244;54.326;10.074;2024-02-23T08:21:15;5.70;99.90
2465;DHT22;1244;54.326;10.074;2024-02-23T08:23:40;5.70;99.90
2465;DHT22;1244;54.326;10.074;2024-02-23T08:26:06;5.80;99.90
2465;DHT22;1244;54.326;10.074;2024-02-23T08:28:32;6.00;99.90
2465;DHT22;1244;54.326;10.074;2024-02-23T08:30:57;6.30;99.90
2465;DHT22;1244;54.326;10.074;2024-02-23T08:33:23;6.60;99.90
2465;DHT22;1244;54.326;10.074;2024-02-23T08:35:48;6.80;99.90
2465;DHT22;1244;54.326;10.074;2024-02-23T08:38:14;6.80;99.90
2465;DHT22;1244;54.326;10.074;2024-02-23T08:40:39;6.70;99.90
2465;DHT22;1244;54.326;10.074;2024-02-23T08:43:05;6.60;99.90
2465;DHT22;1244;54.326;10.074;2024-02-23T08:45:31;6.60;99.90
2465;DHT22;1244;54.326;10.074;2024-02-23T08:47:56;6.80;99.90
2465;DHT22;1244;54.326;10.074;2024-02-23T08:50:22;6.90;99.90
2465;DHT22;1244;54.326;10.074;2024-02-23T08:52:47;7.00;99.90
2465;DHT22;1244;54.326;10.074;2024-02-23T08:55:13;6.70;99.90
2465;DHT22;1244;54.326;10.074;2024-02-23T08:57:38;6.70;99.90
2465;DHT22;1244;54.326;10.074;2024-02-23T09:00:05;6.50;99.90
2465;DHT22;1244;54.326;10.074;2024-02-23T09:02:31;6.80;99.90
2465;DHT22;1244;54.326;10.074;2024-02-23T09:04:58;6.70;99.90
2465;DHT22;1244;54.326;10.074;2024-02-23T09:07:23;6.80;99.90
2465;DHT22;1244;54.326;10.074;2024-02-23T09:09:49;6.70;99.90
2465;DHT22;1244;54.326;10.074;2024-02-23T09:12:15;6.80;99.90
2465;DHT22;1244;54.326;10.074;2024-02-23T09:14:44;6.80;99.90
2465;DHT22;1244;54.326;10.074;2024-02-23T09:17:10;6.80;99.90
2465;DHT22;1244;54.326;10.074;2024-02-23T09:19:36;7.10;99.90
2465;DHT22;1244;54.326;10.074;2024-02-23T09:22:02;7.40;99.90
2465;DHT22;1244;54.326;10.074;2024-02-23T09:24:28;7.50;99.90
2465;DHT22;1244;54.326;10.074;2024-02-23T09:26:54;7.70;99.90
2465;DHT22;1244;54.326;10.074;2024-02-23T09:29:19;7.30;99.90
2465;DHT22;1244;54.326;10.074;2024-02-23T09:31:45;7.30;99.90
2465;DHT22;1244;54.326;10.074;2024-02-23T09:34:10;7.20;99.90
2465;DHT22;1244;54.326;10.074;2024-02-23T09:36:36;7.70;99.90
2465;DHT22;1244;54.326;10.074;2024-02-23T09:39:02;7.90;99.90
2465;DHT22;1244;54.326;10.074;2024-02-23T09:41:31;8.30;99.90
2465;DHT22;1244;54.326;10.074;2024-02-23T09:44:01;7.60;99.90
2465;DHT22;1244;54.326;10.074;2024-02-23T09:46:26;7.80;99.90
2465;DHT22;1244;54.326;10.074;2024-02-23T09:48:53;7.50;99.90
2465;DHT22;1244;54.326;10.074;2024-02-23T09:51:20;7.90;99.90
2465;DHT22;1244;54.326;10.074;2024-02-23T09:53:49;7.70;99.90
2465;DHT22;1244;54.326;10.074;2024-02-23T09:56:15;7.70;99.90
2465;DHT22;1244;54.326;10.074;2024-02-23T09:58:43;7.80;99.90
2465;DHT22;1244;54.326;10.074;2024-02-23T10:01:10;7.60;99.90
2465;DHT22;1244;54.326;10.074;2024-02-23T10:03:37;7.90;99.90
2465;DHT22;1244;54.326;10.074;2024-02-23T10:06:04;8.30;99.90
2465;DHT22;1244;54.326;10.074;2024-02-23T10:08:30;8.40;99.90
2465;DHT22;1244;54.326;10.074;2024-02-23T10:10:56;8.40;99.90
2465;DHT22;1244;54.326;10.074;2024-02-23T10:13:23;8.50;99.90
2465;DHT22;1244;54.326;10.074;2024-02-23T10:15:52;8.30;99.90
2465;DHT22;1244;54.326;10.074;2024-02-23T10:18:19;8.00;99.90
2465;DHT22;1244;54.326;10.074;2024-02-23T10:20:45;7.90;99.90
2465;DHT22;1244;54.326;10.074;2024-02-23T10:23:11;7.70;99.90
2465;DHT22;1244;54.326;10.074;2024-02-23T10:25:37;7.60;99.90
2465;DHT22;1244;54.326;10.074;2024-02-23T10:28:03;7.40;99.90
2465;DHT22;1244;54.326;10.074;2024-02-23T10:30:29;7.40;99.90
2465;DHT22;1244;54.326;10.074;2024-02-23T10:32:55;7.90;99.90
2465;DHT22;1244;54.326;10.074;2024-02-23T10:35:23;8.00;99.90
2465;DHT22;1244;54.326;10.074;2024-02-23T10:37:49;8.10;99.90
2465;DHT22;1244;54.326;10.074;2024-02-23T10:40:21;8.10;99.90
2465;DHT22;1244;54.326;10.074;2024-02-23T10:42:48;7.90;99.90
2465;DHT22;1244;54.326;10.074;2024-02-23T10:45:21;7.60;99.90
2465;DHT22;1244;54.326;10.074;2024-02-23T10:47:48;7.70;99.90
2465;DHT22;1244;54.326;10.074;2024-02-23T10:50:14;7.60;99.90
2465;DHT22;1244;54.326;10.074;2024-02-23T10:52:42;7.60;99.90
2465;DHT22;1244;54.326;10.074;2024-02-23T10:55:09;7.40;99.90
2465;DHT22;1244;54.326;10.074;2024-02-23T10:57:35;7.50;99.90
2465;DHT22;1244;54.326;10.074;2024-02-23T11:00:01;7.70;99.90
2465;DHT22;1244;54.326;10.074;2024-02-23T11:02:30;7.60;99.90
2465;DHT22;1244;54.326;10.074;2024-02-23T11:04:57;7.50;99.90
2465;DHT22;1244;54.326;10.074;2024-02-23T11:07:23;7.40;99.90
2465;DHT22;1244;54.326;10.074;2024-02-23T11:10:00;7.50;99.90
2465;DHT22;1244;54.326;10.074;2024-02-23T11:12:26;7.40;99.90
2465;DHT22;1244;54.326;10.074;2024-02-23T11:14:57;7.40;99.90
2465;DHT22;1244;54.326;10.074;2024-02-23T11:17:32;7.50;99.90
2465;DHT22;1244;54.326;10.074;2024-02-23T11:20:02;7.70;99.90
2465;DHT22;1244;54.326;10.074;2024-02-23T11:22:31;7.70;99.90
2465;DHT22;1244;54.326;10.074;2024-02-23T11:25:04;8.10;99.90
2465;DHT22;1244;54.326;10.074;2024-02-23T11:27:31;9.00;99.90
2465;DHT22;1244;54.326;10.074;2024-02-23T11:30:03;8.90;99.90
2465;DHT22;1244;54.326;10.074;2024-02-23T11:32:58;9.10;99.90
2465;DHT22;1244;54.326;10.074;2024-02-23T11:35:25;8.50;99.90
2465;DHT22;1244;54.326;10.074;2024-02-23T11:37:54;8.30;99.90
2465;DHT22;1244;54.326;10.074;2024-02-23T11:40:30;8.10;99.90
2465;DHT22;1244;54.326;10.074;2024-02-23T11:42:55;8.00;99.90
2465;DHT22;1244;54.326;10.074;2024-02-23T11:45:21;7.80;99.90
2465;DHT22;1244;54.326;10.074;2024-02-23T11:47:47;7.90;99.90
2465;DHT22;1244;54.326;10.074;2024-02-23T11:50:13;7.80;99.90
2465;DHT22;1244;54.326;10.074;2024-02-23T11:52:40;7.90;99.90
2465;DHT22;1244;54.326;10.074;2024-02-23T11:55:06;8.00;99.90
2465;DHT22;1244;54.326;10.074;2024-02-23T11:57:34;8.30;99.90
2465;DHT22;1244;54.326;10.074;2024-02-23T12:00:01;8.60;99.90
2465;DHT22;1244;54.326;10.074;2024-02-23T12:02:27;8.50;99.90
2465;DHT22;1244;54.326;10.074;2024-02-23T12:04:53;9.00;99.90
2465;DHT22;1244;54.326;10.074;2024-02-23T12:07:18;9.40;99.90
2465;DHT22;1244;54.326;10.074;2024-02-23T12:09:45;9.20;99.90
2465;DHT22;1244;54.326;10.074;2024-02-23T12:12:10;8.90;99.90
2465;DHT22;1244;54.326;10.074;2024-02-23T12:14:36;9.30;99.90
2465;DHT22;1244;54.326;10.074;2024-02-23T12:17:02;9.40;99.90
2465;DHT22;1244;54.326;10.074;2024-02-23T12:19:29;8.80;99.90
2465;DHT22;1244;54.326;10.074;2024-02-23T12:22:00;8.70;99.90
2465;DHT22;1244;54.326;10.074;2024-02-23T12:24:25;8.50;99.90
2465;DHT22;1244;54.326;10.074;2024-02-23T12:26:54;8.30;99.90
2465;DHT22;1244;54.326;10.074;2024-02-23T12:29:20;8.30;99.90
2465;DHT22;1244;54.326;10.074;2024-02-23T12:31:46;8.40;99.90
2465;DHT22;1244;54.326;10.074;2024-02-23T12:34:13;8.40;99.90
2465;DHT22;1244;54.326;10.074;2024-02-23T12:36:40;8.60;99.90
2465;DHT22;1244;54.326;10.074;2024-02-23T12:39:06;8.80;99.90
2465;DHT22;1244;54.326;10.074;2024-02-23T12:41:32;8.90;99.90
2465;DHT22;1244;54.326;10.074;2024-02-23T12:43:58;8.90;99.90
2465;DHT22;1244;54.326;10.074;2024-02-23T12:46:23;8.50;99.90
2465;DHT22;1244;54.326;10.074;2024-02-23T12:48:50;8.50;99.90
2465;DHT22;1244;54.326;10.074;2024-02-23T12:51:15;8.40;99.90
2465;DHT22;1244;54.326;10.074;2024-02-23T12:53:42;8.30;99.90
2465;DHT22;1244;54.326;10.074;2024-02-23T12:56:11;8.40;99.90
2465;DHT22;1244;54.326;10.074;2024-02-23T12:58:38;8.30;99.90
2465;DHT22;1244;54.326;10.074;2024-02-23T13:01:04;8.20;99.90
2465;DHT22;1244;54.326;10.074;2024-02-23T13:03:31;8.20;99.90
2465;DHT22;1244;54.326;10.074;2024-02-23T13:05:57;8.10;99.90
2465;DHT22;1244;54.326;10.074;2024-02-23T13:08:23;8.00;99.90
2465;DHT22;1244;54.326;10.074;2024-02-23T13:10:50;8.10;99.90
2465;DHT22;1244;54.326;10.074;2024-02-23T13:13:16;8.10;99.90
2465;DHT22;1244;54.326;10.074;2024-02-23T13:15:45;8.20;99.90
2465;DHT22;1244;54.326;10.074;2024-02-23T13:18:11;8.30;99.90
2465;DHT22;1244;54.326;10.074;2024-02-23T13:20:37;8.30;99.90
2465;DHT22;1244;54.326;10.074;2024-02-23T13:23:03;8.30;99.90
2465;DHT22;1244;54.326;10.074;2024-02-23T13:25:29;8.10;99.90
2465;DHT22;1244;54.326;10.074;2024-02-23T13:27:55;8.10;99.90
2465;DHT22;1244;54.326;10.074;2024-02-23T13:30:20;8.20;99.90
2465;DHT22;1244;54.326;10.074;2024-02-23T13:32:46;8.20;99.90
2465;DHT22;1244;54.326;10.074;2024-02-23T13:35:11;8.10;99.90
2465;DHT22;1244;54.326;10.074;2024-02-23T13:37:39;8.10;99.90
2465;DHT22;1244;54.326;10.074;2024-02-23T13:40:05;8.20;99.90
2465;DHT22;1244;54.326;10.074;2024-02-23T13:42:34;8.20;99.90
2465;DHT22;1244;54.326;10.074;2024-02-23T13:44:59;8.30;99.90
2465;DHT22;1244;54.326;10.074;2024-02-23T13:47:25;8.40;99.90
2465;DHT22;1244;54.326;10.074;2024-02-23T13:49:50;8.40;99.90
2465;DHT22;1244;54.326;10.074;2024-02-23T13:52:16;8.50;99.90
2465;DHT22;1244;54.326;10.074;2024-02-23T13:54:41;8.60;99.90
2465;DHT22;1244;54.326;10.074;2024-02-23T13:57:08;8.60;99.90
2465;DHT22;1244;54.326;10.074;2024-02-23T13:59:33;8.40;99.90
2465;DHT22;1244;54.326;10.074;2024-02-23T14:01:59;8.50;99.90
2465;DHT22;1244;54.326;10.074;2024-02-23T14:04:25;8.30;99.90
2465;DHT22;1244;54.326;10.074;2024-02-23T14:06:51;8.30;99.90
2465;DHT22;1244;54.326;10.074;2024-02-23T14:09:16;8.40;99.90
2465;DHT22;1244;54.326;10.074;2024-02-23T14:11:42;8.40;99.90
2465;DHT22;1244;54.326;10.074;2024-02-23T14:14:07;8.20;99.90
2465;DHT22;1244;54.326;10.074;2024-02-23T14:16:33;8.10;99.90
2465;DHT22;1244;54.326;10.074;2024-02-23T14:19:00;8.20;99.90
2465;DHT22;1244;54.326;10.074;2024-02-23T14:21:25;8.10;99.90
2465;DHT22;1244;54.326;10.074;2024-02-23T14:23:51;8.10;99.90
2465;DHT22;1244;54.326;10.074;2024-02-23T14:26:17;8.10;99.90
2465;DHT22;1244;54.326;10.074;2024-02-23T14:28:42;8.50;99.90
2465;DHT22;1244;54.326;10.074;2024-02-23T14:31:08;10.30;99.90
2465;DHT22;1244;54.326;10.074;2024-02-23T14:33:33;9.90;99.90
2465;DHT22;1244;54.326;10.074;2024-02-23T14:35:59;9.40;99.90
2465;DHT22;1244;54.326;10.074;2024-02-23T14:38:24;8.90;99.90
2465;DHT22;1244;54.326;10.074;2024-02-23T14:40:50;8.70;99.90
2465;DHT22;1244;54.326;10.074;2024-02-23T14:43:15;8.60;99.90
2465;DHT22;1244;54.326;10.074;2024-02-23T14:45:41;8.40;99.90
2465;DHT22;1244;54.326;10.074;2024-02-23T14:48:06;8.40;99.90
2465;DHT22;1244;54.326;10.074;2024-02-23T14:50:32;8.50;99.90
2465;DHT22;1244;54.326;10.074;2024-02-23T14:52:57;8.60;99.90
2465;DHT22;1244;54.326;10.074;2024-02-23T14:55:23;8.60;99.90
2465;DHT22;1244;54.326;10.074;2024-02-23T14:57:48;8.60;99.90
2465;DHT22;1244;54.326;10.074;2024-02-23T15:00:14;8.30;99.90
2465;DHT22;1244;54.326;10.074;2024-02-23T15:02:39;8.20;99.90
2465;DHT22;1244;54.326;10.074;2024-02-23T15:05:05;8.20;99.90
2465;DHT22;1244;54.326;10.074;2024-02-23T15:07:31;8.10;99.90
2465;DHT22;1244;54.326;10.074;2024-02-23T15:09:57;8.00;99.90
2465;DHT22;1244;54.326;10.074;2024-02-23T15:12:22;8.00;99.90
2465;DHT22;1244;54.326;10.074;2024-02-23T15:14:49;8.10;99.90
2465;DHT22;1244;54.326;10.074;2024-02-23T15:17:15;8.10;99.90
2465;DHT22;1244;54.326;10.074;2024-02-23T15:19:40;8.10;99.90
2465;DHT22;1244;54.326;10.074;2024-02-23T15:22:05;8.10;99.90
2465;DHT22;1244;54.326;10.074;2024-02-23T15:24:33;8.10;99.90
2465;DHT22;1244;54.326;10.074;2024-02-23T15:26:58;8.10;99.90
2465;DHT22;1244;54.326;10.074;2024-02-23T15:29:24;8.10;99.90
2465;DHT22;1244;54.326;10.074;2024-02-23T15:31:50;8.10;99.90
2465;DHT22;1244;54.326;10.074;2024-02-23T15:34:16;8.10;99.90
2465;DHT22;1244;54.326;10.074;2024-02-23T15:36:41;8.00;99.90
2465;DHT22;1244;54.326;10.074;2024-02-23T15:39:07;8.00;99.90
2465;DHT22;1244;54.326;10.074;2024-02-23T15:41:33;8.00;99.90
2465;DHT22;1244;54.326;10.074;2024-02-23T15:44:02;8.10;99.90
2465;DHT22;1244;54.326;10.074;2024-02-23T15:46:28;8.00;99.90
2465;DHT22;1244;54.326;10.074;2024-02-23T15:48:54;8.00;99.90
2465;DHT22;1244;54.326;10.074;2024-02-23T15:51:20;8.00;99.90
2465;DHT22;1244;54.326;10.074;2024-02-23T15:53:46;8.00;99.90
2465;DHT22;1244;54.326;10.074;2024-02-23T15:56:12;8.10;99.90